sensor_id;sensor_type;location;lat;lon;timestamp;pressure;altitude;pressure_sealevel;temperature;humidity
45731;BME280;31440;48.584;13.460;2023-05-23T00:00:26;96364.63;;;16.93;100.00
45731;BME280;31440;48.584;13.460;2023-05-23T00:03:30;96371.69;;;17.18;100.00
45731;BME280;31440;48.584;13.460;2023-05-23T00:06:36;96367.38;;;17.17;100.00
45731;BME280;31440;48.584;13.460;2023-05-23T00:09:42;96369.38;;;17.00;100.00
45731;BME280;31440;48.584;13.460;2023-05-23T00:12:46;96372.28;;;16.96;100.00
45731;BME280;31440;48.584;13.460;2023-05-23T00:15:51;96370.75;;;17.06;100.00
45731;BME280;31440;48.584;13.460;2023-05-23T00:18:56;96376.34;;;16.75;100.00
45731;BME280;31440;48.584;13.460;2023-05-23T00:22:02;96375.34;;;17.02;100.00
45731;BME280;31440;48.584;13.460;2023-05-23T00:25:08;96388.41;;;16.64;100.00
45731;BME280;31440;48.584;13.460;2023-05-23T00:28:13;96378.91;;;16.62;100.00
45731;BME280;31440;48.584;13.460;2023-05-23T00:31:17;96386.97;;;16.59;100.00
45731;BME280;31440;48.584;13.460;2023-05-23T00:34:22;96384.72;;;16.40;100.00
45731;BME280;31440;48.584;13.460;2023-05-23T00:37:26;96390.13;;;16.51;100.00
45731;BME280;31440;48.584;13.460;2023-05-23T00:40:31;96397.03;;;16.52;100.00
45731;BME280;31440;48.584;13.460;2023-05-23T00:43:36;96388.97;;;16.55;100.00
45731;BME280;31440;48.584;13.460;2023-05-23T00:46:44;96402.13;;;16.41;100.00
45731;BME280;31440;48.584;13.460;2023-05-23T00:49:49;96394.09;;;16.71;100.00
45731;BME280;31440;48.584;13.460;2023-05-23T00:52:54;96399.63;;;16.66;100.00
45731;BME280;31440;48.584;13.460;2023-05-23T00:55:59;96399.41;;;16.69;100.00
45731;BME280;31440;48.584;13.460;2023-05-23T00:59:04;96396.84;;;16.55;100.00
45731;BME280;31440;48.584;13.460;2023-05-23T01:02:08;96405.31;;;16.19;100.00
45731;BME280;31440;48.584;13.460;2023-05-23T01:05:14;96399.94;;;16.21;100.00
45731;BME280;31440;48.584;13.460;2023-05-23T01:08:21;96403.63;;;16.58;100.00
45731;BME280;31440;48.584;13.460;2023-05-23T01:11:31;96398.28;;;16.47;100.00
45731;BME280;31440;48.584;13.460;2023-05-23T01:14:46;96397.16;;;16.63;100.00
45731;BME280;31440;48.584;13.460;2023-05-23T01:18:01;96400.19;;;16.04;100.00
45731;BME280;31440;48.584;13.460;2023-05-23T01:21:10;96404.13;;;16.64;100.00
45731;BME280;31440;48.584;13.460;2023-05-23T01:30:31;96397.84;;;16.67;100.00
45731;BME280;31440;48.584;13.460;2023-05-23T01:33:37;96409.53;;;16.08;100.00
45731;BME280;31440;48.584;13.460;2023-05-23T01:36:43;96412.16;;;16.08;100.00
45731;BME280;31440;48.584;13.460;2023-05-23T01:39:48;96412.75;;;15.98;100.00
45731;BME280;31440;48.584;13.460;2023-05-23T01:42:52;96403.25;;;16.10;100.00
45731;BME280;31440;48.584;13.460;2023-05-23T01:45:58;96401.59;;;16.36;100.00
45731;BME280;31440;48.584;13.460;2023-05-23T01:49:04;96413.31;;;16.30;100.00
45731;BME280;31440;48.584;13.460;2023-05-23T01:52:10;96416.94;;;15.87;100.00
45731;BME280;31440;48.584;13.460;2023-05-23T01:55:16;96411.41;;;16.06;100.00
45731;BME280;31440;48.584;13.460;2023-05-23T01:58:26;96417.56;;;16.05;100.00
45731;BME280;31440;48.584;13.460;2023-05-23T02:01:30;96430.63;;;15.63;100.00
45731;BME280;31440;48.584;13.460;2023-05-23T02:04:35;96418.25;;;15.94;100.00
45731;BME280;31440;48.584;13.460;2023-05-23T02:07:39;96420.03;;;15.93;100.00
45731;BME280;31440;48.584;13.460;2023-05-23T02:10:44;96422.41;;;15.84;100.00
45731;BME280;31440;48.584;13.460;2023-05-23T02:13:48;96432.75;;;15.71;100.00
45731;BME280;31440;48.584;13.460;2023-05-23T02:16:53;96431.81;;;15.29;100.00
45731;BME280;31440;48.584;13.460;2023-05-23T02:19:58;96425.09;;;15.40;100.00
45731;BME280;31440;48.584;13.460;2023-05-23T02:23:02;96426.19;;;15.50;100.00
45731;BME280;31440;48.584;13.460;2023-05-23T02:26:07;96429.72;;;15.64;100.00
45731;BME280;31440;48.584;13.460;2023-05-23T02:29:12;96427.59;;;15.41;100.00
45731;BME280;31440;48.584;13.460;2023-05-23T02:32:16;96427.81;;;15.66;100.00
45731;BME280;31440;48.584;13.460;2023-05-23T02:35:21;96422.72;;;15.49;100.00
45731;BME280;31440;48.584;13.460;2023-05-23T02:38:26;96417.81;;;15.59;100.00
45731;BME280;31440;48.584;13.460;2023-05-23T02:41:34;96419.84;;;15.25;100.00
45731;BME280;31440;48.584;13.460;2023-05-23T02:44:38;96420.50;;;15.29;100.00
45731;BME280;31440;48.584;13.460;2023-05-23T02:47:43;96423.41;;;15.53;100.00
45731;BME280;31440;48.584;13.460;2023-05-23T02:50:48;96432.75;;;15.71;100.00
45731;BME280;31440;48.584;13.460;2023-05-23T02:53:52;96431.34;;;15.37;100.00
45731;BME280;31440;48.584;13.460;2023-05-23T02:56:57;96414.53;;;15.41;100.00
45731;BME280;31440;48.584;13.460;2023-05-23T03:00:02;96425.91;;;15.54;100.00
45731;BME280;31440;48.584;13.460;2023-05-23T03:03:07;96403.59;;;15.49;100.00
45731;BME280;31440;48.584;13.460;2023-05-23T03:06:12;96418.81;;;15.28;100.00
45731;BME280;31440;48.584;13.460;2023-05-23T03:09:19;96416.25;;;15.12;100.00
45731;BME280;31440;48.584;13.460;2023-05-23T03:12:24;96415.31;;;14.99;100.00
45731;BME280;31440;48.584;13.460;2023-05-23T03:15:29;96392.09;;;15.09;100.00
45731;BME280;31440;48.584;13.460;2023-05-23T03:18:34;96386.25;;;14.75;100.00
45731;BME280;31440;48.584;13.460;2023-05-23T03:21:39;96420.34;;;14.88;100.00
45731;BME280;31440;48.584;13.460;2023-05-23T03:24:44;96384.97;;;14.96;100.00
45731;BME280;31440;48.584;13.460;2023-05-23T03:27:49;96376.78;;;15.31;100.00
45731;BME280;31440;48.584;13.460;2023-05-23T03:30:53;96409.50;;;15.66;100.00
45731;BME280;31440;48.584;13.460;2023-05-23T03:33:58;96418.63;;;15.31;100.00
45731;BME280;31440;48.584;13.460;2023-05-23T03:37:03;96420.16;;;15.63;100.00
45731;BME280;31440;48.584;13.460;2023-05-23T03:40:08;96428.28;;;15.45;100.00
45731;BME280;31440;48.584;13.460;2023-05-23T03:43:13;96434.09;;;15.64;100.00
45731;BME280;31440;48.584;13.460;2023-05-23T03:46:19;96426.88;;;14.95;100.00
45731;BME280;31440;48.584;13.460;2023-05-23T03:49:24;96423.31;;;15.26;100.00
45731;BME280;31440;48.584;13.460;2023-05-23T03:52:29;96450.75;;;14.59;100.00
45731;BME280;31440;48.584;13.460;2023-05-23T03:55:33;96440.63;;;15.13;100.00
45731;BME280;31440;48.584;13.460;2023-05-23T03:58:38;96419.28;;;15.20;100.00
45731;BME280;31440;48.584;13.460;2023-05-23T04:01:48;96441.19;;;15.04;100.00
45731;BME280;31440;48.584;13.460;2023-05-23T04:04:53;96431.94;;;14.98;100.00
45731;BME280;31440;48.584;13.460;2023-05-23T04:08:00;96420.56;;;15.13;100.00
45731;BME280;31440;48.584;13.460;2023-05-23T04:11:05;96434.81;;;15.66;100.00
45731;BME280;31440;48.584;13.460;2023-05-23T04:14:13;96400.13;;;15.91;100.00
45731;BME280;31440;48.584;13.460;2023-05-23T04:17:18;96413.16;;;16.05;100.00
45731;BME280;31440;48.584;13.460;2023-05-23T04:20:24;96412.09;;;15.95;100.00
45731;BME280;31440;48.584;13.460;2023-05-23T04:23:30;96417.41;;;15.93;100.00
45731;BME280;31440;48.584;13.460;2023-05-23T04:26:35;96440.06;;;15.80;100.00
45731;BME280;31440;48.584;13.460;2023-05-23T04:29:41;96435.56;;;15.96;100.00
45731;BME280;31440;48.584;13.460;2023-05-23T04:32:45;96436.44;;;16.51;100.00
45731;BME280;31440;48.584;13.460;2023-05-23T04:35:51;96433.41;;;16.84;100.00
45731;BME280;31440;48.584;13.460;2023-05-23T04:38:56;96437.09;;;16.94;100.00
45731;BME280;31440;48.584;13.460;2023-05-23T04:42:01;96408.13;;;16.02;100.00
45731;BME280;31440;48.584;13.460;2023-05-23T04:45:24;96412.81;;;16.65;100.00
45731;BME280;31440;48.584;13.460;2023-05-23T04:48:46;96404.91;;;16.52;100.00
45731;BME280;31440;48.584;13.460;2023-05-23T04:51:52;96450.72;;;16.32;100.00
45731;BME280;31440;48.584;13.460;2023-05-23T04:55:07;96426.56;;;15.86;100.00
45731;BME280;31440;48.584;13.460;2023-05-23T04:58:12;96440.34;;;16.85;100.00
45731;BME280;31440;48.584;13.460;2023-05-23T05:01:18;96399.44;;;16.82;100.00
45731;BME280;31440;48.584;13.460;2023-05-23T05:04:25;96416.94;;;16.82;100.00
45731;BME280;31440;48.584;13.460;2023-05-23T05:07:30;96420.75;;;17.28;100.00
45731;BME280;31440;48.584;13.460;2023-05-23T05:10:39;96443.41;;;17.04;100.00
45731;BME280;31440;48.584;13.460;2023-05-23T05:13:44;96445.22;;;17.29;100.00
45731;BME280;31440;48.584;13.460;2023-05-23T05:16:50;96442.03;;;17.11;100.00
45731;BME280;31440;48.584;13.460;2023-05-23T05:19:56;96460.53;;;17.35;100.00
45731;BME280;31440;48.584;13.460;2023-05-23T05:23:01;96461.28;;;17.24;100.00
45731;BME280;31440;48.584;13.460;2023-05-23T05:26:05;96471.84;;;17.62;100.00
45731;BME280;31440;48.584;13.460;2023-05-23T05:29:11;96453.06;;;17.03;100.00
45731;BME280;31440;48.584;13.460;2023-05-23T05:32:16;96440.78;;;16.38;100.00
45731;BME280;31440;48.584;13.460;2023-05-23T05:35:21;96446.22;;;16.88;100.00
45731;BME280;31440;48.584;13.460;2023-05-23T05:38:26;96475.56;;;17.58;100.00
45731;BME280;31440;48.584;13.460;2023-05-23T05:41:31;96484.47;;;17.30;100.00
45731;BME280;31440;48.584;13.460;2023-05-23T05:44:35;96476.69;;;17.29;100.00
45731;BME280;31440;48.584;13.460;2023-05-23T05:47:40;96470.63;;;17.41;100.00
45731;BME280;31440;48.584;13.460;2023-05-23T05:50:45;96488.91;;;17.68;100.00
45731;BME280;31440;48.584;13.460;2023-05-23T05:53:50;96495.63;;;18.10;100.00
45731;BME280;31440;48.584;13.460;2023-05-23T05:56:55;96473.47;;;17.51;100.00
45731;BME280;31440;48.584;13.460;2023-05-23T06:00:01;96490.94;;;18.52;100.00
45731;BME280;31440;48.584;13.460;2023-05-23T06:03:07;96468.00;;;18.41;100.00
45731;BME280;31440;48.584;13.460;2023-05-23T06:06:22;96464.06;;;18.23;100.00
45731;BME280;31440;48.584;13.460;2023-05-23T06:09:27;96496.94;;;18.89;100.00
45731;BME280;31440;48.584;13.460;2023-05-23T06:12:32;96499.56;;;19.13;100.00
45731;BME280;31440;48.584;13.460;2023-05-23T06:15:37;96499.47;;;19.14;100.00
45731;BME280;31440;48.584;13.460;2023-05-23T06:18:42;96497.03;;;19.00;100.00
45731;BME280;31440;48.584;13.460;2023-05-23T06:21:47;96492.78;;;19.21;100.00
45731;BME280;31440;48.584;13.460;2023-05-23T06:24:53;96482.28;;;19.32;100.00
45731;BME280;31440;48.584;13.460;2023-05-23T06:27:58;96471.59;;;19.11;100.00
45731;BME280;31440;48.584;13.460;2023-05-23T06:31:04;96493.06;;;19.75;100.00
45731;BME280;31440;48.584;13.460;2023-05-23T06:34:09;96503.88;;;19.37;100.00
45731;BME280;31440;48.584;13.460;2023-05-23T06:37:13;96457.28;;;19.95;100.00
45731;BME280;31440;48.584;13.460;2023-05-23T06:40:18;96482.16;;;19.80;100.00
45731;BME280;31440;48.584;13.460;2023-05-23T06:43:23;96479.41;;;20.48;100.00
45731;BME280;31440;48.584;13.460;2023-05-23T06:46:29;96498.44;;;20.19;100.00
45731;BME280;31440;48.584;13.460;2023-05-23T06:49:34;96489.63;;;20.20;96.82
45731;BME280;31440;48.584;13.460;2023-05-23T06:52:39;96468.75;;;20.17;97.25
45731;BME280;31440;48.584;13.460;2023-05-23T06:55:46;96504.94;;;19.92;100.00
45731;BME280;31440;48.584;13.460;2023-05-23T06:58:53;96495.59;;;20.44;100.00
45731;BME280;31440;48.584;13.460;2023-05-23T07:01:58;96475.47;;;20.09;100.00
45731;BME280;31440;48.584;13.460;2023-05-23T07:05:03;96494.00;;;20.64;100.00
45731;BME280;31440;48.584;13.460;2023-05-23T07:08:22;96496.41;;;21.31;94.80
45731;BME280;31440;48.584;13.460;2023-05-23T07:11:34;96489.00;;;20.50;95.04
45731;BME280;31440;48.584;13.460;2023-05-23T07:14:41;96489.03;;;20.27;94.66
45731;BME280;31440;48.584;13.460;2023-05-23T07:17:46;96471.72;;;20.89;92.49
45731;BME280;31440;48.584;13.460;2023-05-23T07:20:51;96501.97;;;20.85;92.87
45731;BME280;31440;48.584;13.460;2023-05-23T07:23:57;96479.69;;;20.77;93.04
45731;BME280;31440;48.584;13.460;2023-05-23T07:27:02;96479.06;;;19.86;95.33
45731;BME280;31440;48.584;13.460;2023-05-23T07:30:08;96497.50;;;20.42;97.14
45731;BME280;31440;48.584;13.460;2023-05-23T07:33:14;96494.75;;;20.43;93.07
45731;BME280;31440;48.584;13.460;2023-05-23T07:36:21;96489.56;;;20.64;94.68
45731;BME280;31440;48.584;13.460;2023-05-23T07:39:28;96485.06;;;20.22;90.99
45731;BME280;31440;48.584;13.460;2023-05-23T07:42:34;96469.50;;;20.84;88.90
45731;BME280;31440;48.584;13.460;2023-05-23T07:45:39;96478.78;;;20.67;89.72
45731;BME280;31440;48.584;13.460;2023-05-23T07:48:44;96492.47;;;20.93;90.18
45731;BME280;31440;48.584;13.460;2023-05-23T07:51:50;96473.38;;;21.54;83.84
45731;BME280;31440;48.584;13.460;2023-05-23T07:54:55;96504.13;;;21.23;89.29
45731;BME280;31440;48.584;13.460;2023-05-23T07:57:59;96516.50;;;21.64;87.25
45731;BME280;31440;48.584;13.460;2023-05-23T08:01:04;96522.75;;;21.21;90.63
45731;BME280;31440;48.584;13.460;2023-05-23T08:04:28;96514.41;;;21.78;89.36
45731;BME280;31440;48.584;13.460;2023-05-23T08:07:33;96520.50;;;21.58;88.74
45731;BME280;31440;48.584;13.460;2023-05-23T08:10:40;96514.38;;;21.58;89.49
45731;BME280;31440;48.584;13.460;2023-05-23T08:13:52;96510.72;;;21.70;91.36
45731;BME280;31440;48.584;13.460;2023-05-23T08:17:23;96498.94;;;21.74;85.74
45731;BME280;31440;48.584;13.460;2023-05-23T08:20:28;96495.19;;;22.28;82.79
45731;BME280;31440;48.584;13.460;2023-05-23T08:23:36;96516.94;;;22.50;85.01
45731;BME280;31440;48.584;13.460;2023-05-23T08:26:41;96523.91;;;22.82;80.82
45731;BME280;31440;48.584;13.460;2023-05-23T08:29:48;96496.31;;;23.04;84.50
45731;BME280;31440;48.584;13.460;2023-05-23T08:32:53;96513.75;;;23.74;81.39
45731;BME280;31440;48.584;13.460;2023-05-23T08:35:59;96521.66;;;22.87;82.21
45731;BME280;31440;48.584;13.460;2023-05-23T08:39:04;96520.75;;;23.17;80.31
45731;BME280;31440;48.584;13.460;2023-05-23T08:42:13;96525.03;;;22.99;82.28
45731;BME280;31440;48.584;13.460;2023-05-23T08:45:18;96525.91;;;23.57;83.57
45731;BME280;31440;48.584;13.460;2023-05-23T08:48:24;96519.09;;;24.20;73.85
45731;BME280;31440;48.584;13.460;2023-05-23T08:51:34;96489.47;;;23.78;73.59
45731;BME280;31440;48.584;13.460;2023-05-23T08:54:46;96516.44;;;24.48;72.54
45731;BME280;31440;48.584;13.460;2023-05-23T08:57:52;96525.81;;;24.15;72.73
45731;BME280;31440;48.584;13.460;2023-05-23T09:01:07;96520.97;;;24.38;73.04
45731;BME280;31440;48.584;13.460;2023-05-23T09:04:14;96525.16;;;24.77;66.13
45731;BME280;31440;48.584;13.460;2023-05-23T09:07:33;96495.63;;;24.53;69.18
45731;BME280;31440;48.584;13.460;2023-05-23T09:10:37;96525.28;;;23.92;70.69
45731;BME280;31440;48.584;13.460;2023-05-23T09:13:44;96526.59;;;24.89;65.41
45731;BME280;31440;48.584;13.460;2023-05-23T09:16:59;96488.94;;;24.21;70.28
45731;BME280;31440;48.584;13.460;2023-05-23T09:20:17;96519.75;;;24.59;71.00
45731;BME280;31440;48.584;13.460;2023-05-23T09:23:31;96519.97;;;24.76;71.43
45731;BME280;31440;48.584;13.460;2023-05-23T09:26:38;96519.91;;;25.48;66.57
45731;BME280;31440;48.584;13.460;2023-05-23T09:29:42;96514.28;;;25.34;68.98
45731;BME280;31440;48.584;13.460;2023-05-23T09:32:58;96500.06;;;26.38;65.22
45731;BME280;31440;48.584;13.460;2023-05-23T09:36:08;96502.69;;;24.72;66.33
45731;BME280;31440;48.584;13.460;2023-05-23T09:39:14;96493.00;;;25.16;61.70
45731;BME280;31440;48.584;13.460;2023-05-23T09:42:20;96489.00;;;24.67;67.25
45731;BME280;31440;48.584;13.460;2023-05-23T09:45:29;96502.03;;;24.87;67.11
45731;BME280;31440;48.584;13.460;2023-05-23T09:48:34;96468.94;;;25.79;60.41
45731;BME280;31440;48.584;13.460;2023-05-23T09:51:39;96498.72;;;27.26;60.62
45731;BME280;31440;48.584;13.460;2023-05-23T09:54:45;96502.88;;;26.03;56.73
45731;BME280;31440;48.584;13.460;2023-05-23T09:57:52;96498.34;;;26.29;59.17
45731;BME280;31440;48.584;13.460;2023-05-23T10:00:59;96496.94;;;24.94;63.25
45731;BME280;31440;48.584;13.460;2023-05-23T10:04:08;96490.31;;;24.80;64.54
45731;BME280;31440;48.584;13.460;2023-05-23T10:07:13;96479.53;;;24.64;62.22
45731;BME280;31440;48.584;13.460;2023-05-23T10:10:22;96492.78;;;24.00;68.49
45731;BME280;31440;48.584;13.460;2023-05-23T10:13:27;96476.47;;;24.32;67.64
45731;BME280;31440;48.584;13.460;2023-05-23T10:16:55;96475.16;;;23.42;74.56
45731;BME280;31440;48.584;13.460;2023-05-23T10:20:03;96467.94;;;24.83;65.37
45731;BME280;31440;48.584;13.460;2023-05-23T10:23:13;96463.78;;;25.77;60.71
45731;BME280;31440;48.584;13.460;2023-05-23T10:26:18;96461.94;;;25.52;62.00
45731;BME280;31440;48.584;13.460;2023-05-23T10:29:24;96426.84;;;25.22;60.90
45731;BME280;31440;48.584;13.460;2023-05-23T10:32:29;96457.19;;;25.02;62.20
45731;BME280;31440;48.584;13.460;2023-05-23T10:45:28;96442.72;;;27.18;55.79
45731;BME280;31440;48.584;13.460;2023-05-23T10:48:34;96453.88;;;27.06;53.01
45731;BME280;31440;48.584;13.460;2023-05-23T10:51:47;96448.69;;;27.04;53.19
45731;BME280;31440;48.584;13.460;2023-05-23T10:54:54;96422.19;;;26.70;53.20
45731;BME280;31440;48.584;13.460;2023-05-23T10:58:14;96449.13;;;26.67;55.00
45731;BME280;31440;48.584;13.460;2023-05-23T11:01:20;96459.16;;;25.36;65.37
45731;BME280;31440;48.584;13.460;2023-05-23T11:04:26;96452.69;;;27.00;53.30
45731;BME280;31440;48.584;13.460;2023-05-23T11:07:31;96449.84;;;26.85;56.85
45731;BME280;31440;48.584;13.460;2023-05-23T11:11:01;96466.34;;;25.61;59.05
45731;BME280;31440;48.584;13.460;2023-05-23T11:14:06;96441.50;;;25.09;59.75
45731;BME280;31440;48.584;13.460;2023-05-23T11:20:17;96455.91;;;24.88;62.49
45731;BME280;31440;48.584;13.460;2023-05-23T11:23:39;96466.13;;;25.01;62.26
45731;BME280;31440;48.584;13.460;2023-05-23T11:26:57;96449.53;;;24.54;61.48
45731;BME280;31440;48.584;13.460;2023-05-23T11:30:08;96440.50;;;25.27;59.53
45731;BME280;31440;48.584;13.460;2023-05-23T11:33:14;96455.59;;;24.91;58.88
45731;BME280;31440;48.584;13.460;2023-05-23T11:36:21;96423.41;;;26.00;53.60
45731;BME280;31440;48.584;13.460;2023-05-23T11:39:26;96443.69;;;26.77;53.69
45731;BME280;31440;48.584;13.460;2023-05-23T11:42:30;96437.41;;;27.83;48.86
45731;BME280;31440;48.584;13.460;2023-05-23T11:45:36;96435.91;;;26.49;55.20
45731;BME280;31440;48.584;13.460;2023-05-23T11:48:45;96457.81;;;26.01;54.48
45731;BME280;31440;48.584;13.460;2023-05-23T11:51:49;96456.59;;;25.70;54.45
45731;BME280;31440;48.584;13.460;2023-05-23T11:54:54;96440.91;;;24.79;55.68
45731;BME280;31440;48.584;13.460;2023-05-23T11:58:04;96447.22;;;27.50;52.38
45731;BME280;31440;48.584;13.460;2023-05-23T12:01:10;96455.41;;;27.65;50.78
45731;BME280;31440;48.584;13.460;2023-05-23T12:04:15;96441.03;;;26.93;53.38
45731;BME280;31440;48.584;13.460;2023-05-23T12:07:20;96431.84;;;25.43;53.91
45731;BME280;31440;48.584;13.460;2023-05-23T12:10:26;96449.84;;;25.14;54.99
45731;BME280;31440;48.584;13.460;2023-05-23T12:13:31;96425.03;;;25.67;53.34
45731;BME280;31440;48.584;13.460;2023-05-23T12:16:36;96456.25;;;25.65;57.20
45731;BME280;31440;48.584;13.460;2023-05-23T12:19:45;96439.53;;;25.11;56.42
45731;BME280;31440;48.584;13.460;2023-05-23T12:22:52;96434.66;;;24.71;60.30
45731;BME280;31440;48.584;13.460;2023-05-23T12:25:57;96450.09;;;24.03;65.83
45731;BME280;31440;48.584;13.460;2023-05-23T12:29:02;96466.63;;;24.14;62.62
45731;BME280;31440;48.584;13.460;2023-05-23T12:32:07;96442.84;;;25.74;57.47
45731;BME280;31440;48.584;13.460;2023-05-23T12:35:13;96444.00;;;26.82;55.18
45731;BME280;31440;48.584;13.460;2023-05-23T12:38:19;96441.34;;;26.74;52.15
45731;BME280;31440;48.584;13.460;2023-05-23T12:41:27;96437.69;;;26.83;50.75
45731;BME280;31440;48.584;13.460;2023-05-23T12:44:31;96429.44;;;27.26;48.87
45731;BME280;31440;48.584;13.460;2023-05-23T12:47:36;96441.69;;;26.45;50.50
45731;BME280;31440;48.584;13.460;2023-05-23T12:50:41;96413.94;;;27.38;48.66
45731;BME280;31440;48.584;13.460;2023-05-23T12:53:46;96443.06;;;27.64;50.58
45731;BME280;31440;48.584;13.460;2023-05-23T12:56:51;96415.13;;;28.85;47.32
45731;BME280;31440;48.584;13.460;2023-05-23T12:59:55;96437.78;;;28.58;48.32
45731;BME280;31440;48.584;13.460;2023-05-23T13:03:00;96419.31;;;28.10;44.45
45731;BME280;31440;48.584;13.460;2023-05-23T13:06:05;96425.91;;;28.69;43.41
45731;BME280;31440;48.584;13.460;2023-05-23T13:09:10;96417.81;;;29.83;43.29
45731;BME280;31440;48.584;13.460;2023-05-23T13:12:14;96431.50;;;29.28;43.46
45731;BME280;31440;48.584;13.460;2023-05-23T13:15:20;96444.34;;;28.79;43.41
45731;BME280;31440;48.584;13.460;2023-05-23T13:18:25;96439.88;;;27.93;44.15
45731;BME280;31440;48.584;13.460;2023-05-23T13:21:29;96422.41;;;27.66;44.68
45731;BME280;31440;48.584;13.460;2023-05-23T13:24:38;96415.28;;;29.52;42.70
45731;BME280;31440;48.584;13.460;2023-05-23T13:27:43;96429.41;;;27.10;46.03
45731;BME280;31440;48.584;13.460;2023-05-23T13:30:50;96426.03;;;26.76;46.23
45731;BME280;31440;48.584;13.460;2023-05-23T13:33:55;96431.63;;;28.19;45.07
45731;BME280;31440;48.584;13.460;2023-05-23T13:36:59;96426.91;;;28.68;46.33
45731;BME280;31440;48.584;13.460;2023-05-23T13:40:05;96396.88;;;28.27;43.71
45731;BME280;31440;48.584;13.460;2023-05-23T13:43:10;96426.97;;;28.13;42.30
45731;BME280;31440;48.584;13.460;2023-05-23T13:46:15;96442.44;;;27.29;46.09
45731;BME280;31440;48.584;13.460;2023-05-23T13:49:19;96451.28;;;28.65;44.68
45731;BME280;31440;48.584;13.460;2023-05-23T13:52:24;96448.53;;;27.14;43.87
45731;BME280;31440;48.584;13.460;2023-05-23T13:55:29;96446.91;;;27.61;45.94
45731;BME280;31440;48.584;13.460;2023-05-23T13:58:34;96436.75;;;28.28;47.05
45731;BME280;31440;48.584;13.460;2023-05-23T14:01:38;96439.91;;;27.20;47.18
45731;BME280;31440;48.584;13.460;2023-05-23T14:04:43;96451.56;;;27.11;46.63
45731;BME280;31440;48.584;13.460;2023-05-23T14:07:48;96475.38;;;27.69;46.65
45731;BME280;31440;48.584;13.460;2023-05-23T14:10:53;96478.84;;;27.05;46.08
45731;BME280;31440;48.584;13.460;2023-05-23T14:13:57;96453.75;;;28.27;44.02
45731;BME280;31440;48.584;13.460;2023-05-23T14:17:02;96483.34;;;28.57;43.56
45731;BME280;31440;48.584;13.460;2023-05-23T14:20:07;96458.22;;;29.73;42.34
45731;BME280;31440;48.584;13.460;2023-05-23T14:23:12;96445.19;;;29.10;39.18
45731;BME280;31440;48.584;13.460;2023-05-23T14:26:17;96454.19;;;29.32;40.98
45731;BME280;31440;48.584;13.460;2023-05-23T14:29:21;96467.56;;;28.47;39.45
45731;BME280;31440;48.584;13.460;2023-05-23T14:32:26;96458.91;;;27.65;40.34
45731;BME280;31440;48.584;13.460;2023-05-23T14:35:31;96464.81;;;28.16;40.35
45731;BME280;31440;48.584;13.460;2023-05-23T14:38:35;96476.72;;;27.24;40.26
45731;BME280;31440;48.584;13.460;2023-05-23T14:41:42;96441.53;;;28.02;40.58
45731;BME280;31440;48.584;13.460;2023-05-23T14:44:47;96439.91;;;29.25;39.74
45731;BME280;31440;48.584;13.460;2023-05-23T14:47:51;96445.41;;;29.84;39.32
45731;BME280;31440;48.584;13.460;2023-05-23T14:50:56;96471.94;;;30.52;38.63
45731;BME280;31440;48.584;13.460;2023-05-23T14:54:04;96460.47;;;29.24;41.29
45731;BME280;31440;48.584;13.460;2023-05-23T14:57:09;96458.19;;;28.82;41.08
45731;BME280;31440;48.584;13.460;2023-05-23T15:00:14;96479.31;;;28.69;41.47
45731;BME280;31440;48.584;13.460;2023-05-23T15:03:19;96466.63;;;29.02;40.34
45731;BME280;31440;48.584;13.460;2023-05-23T15:06:24;96463.88;;;29.33;39.21
45731;BME280;31440;48.584;13.460;2023-05-23T15:09:28;96463.72;;;28.81;40.84
45731;BME280;31440;48.584;13.460;2023-05-23T15:12:33;96480.38;;;27.96;40.25
45731;BME280;31440;48.584;13.460;2023-05-23T15:15:38;96454.22;;;27.35;43.04
45731;BME280;31440;48.584;13.460;2023-05-23T15:18:44;96490.59;;;28.40;42.44
45731;BME280;31440;48.584;13.460;2023-05-23T15:21:49;96452.19;;;28.02;39.54
45731;BME280;31440;48.584;13.460;2023-05-23T15:24:57;96470.31;;;28.07;40.98
45731;BME280;31440;48.584;13.460;2023-05-23T15:28:03;96474.78;;;29.09;41.50
45731;BME280;31440;48.584;13.460;2023-05-23T15:31:08;96460.53;;;27.66;40.71
45731;BME280;31440;48.584;13.460;2023-05-23T15:34:12;96479.66;;;27.13;40.38
45731;BME280;31440;48.584;13.460;2023-05-23T15:37:17;96491.03;;;27.96;41.10
45731;BME280;31440;48.584;13.460;2023-05-23T15:40:21;96462.47;;;26.83;41.74
45731;BME280;31440;48.584;13.460;2023-05-23T15:43:26;96452.28;;;26.28;42.03
45731;BME280;31440;48.584;13.460;2023-05-23T15:46:31;96442.19;;;26.90;41.12
45731;BME280;31440;48.584;13.460;2023-05-23T15:49:36;96469.47;;;25.82;43.16
45731;BME280;31440;48.584;13.460;2023-05-23T15:52:40;96464.03;;;25.40;43.60
45731;BME280;31440;48.584;13.460;2023-05-23T15:55:45;96476.38;;;26.27;42.79
45731;BME280;31440;48.584;13.460;2023-05-23T15:58:50;96486.84;;;25.69;44.35
45731;BME280;31440;48.584;13.460;2023-05-23T16:01:54;96473.63;;;24.70;46.45
45731;BME280;31440;48.584;13.460;2023-05-23T16:04:59;96484.13;;;25.60;44.59
45731;BME280;31440;48.584;13.460;2023-05-23T16:08:04;96485.72;;;25.97;44.54
45731;BME280;31440;48.584;13.460;2023-05-23T16:11:08;96461.13;;;25.16;45.96
45731;BME280;31440;48.584;13.460;2023-05-23T16:14:13;96486.22;;;25.31;46.90
45731;BME280;31440;48.584;13.460;2023-05-23T16:17:18;96471.53;;;25.09;47.04
45731;BME280;31440;48.584;13.460;2023-05-23T16:20:23;96458.53;;;25.59;45.63
45731;BME280;31440;48.584;13.460;2023-05-23T16:23:27;96462.19;;;25.23;46.38
45731;BME280;31440;48.584;13.460;2023-05-23T16:26:32;96488.63;;;25.42;45.97